GLD1154 SBAR-SBSV
Flight info
| Callsign | GLD1154 |
|---|---|
| Flight time | 0h 39m |
| Altitude | 16000 |
| Route | DCT AKPAS |
| Aircraft | B738/M-SDFGIRY/S |
Departure
| Time | 2026-05-03 23:43 |
|---|---|
| Airport | Aracaju - Santa Maria Airport (SBAR) |
Arrival
| Time | 2026-05-04 00:23 |
|---|---|
| Airport | Deputado Luiz Eduardo Magalhães International Airport (SBSV) |
| Time | Latitude | Longitude | Altitude | Speed | Heading |
|---|---|---|---|---|---|
| 2026-05-03 23:20 | -10.98631 | -37.07237 | 40 ft | 0 kts | 183° |
| 2026-05-03 23:34 | -10.98617 | -37.07236 | 40 ft | 4 kts | 193° |
| 2026-05-03 23:34 | -10.98594 | -37.07225 | 38 ft | 4 kts | 229° |
| 2026-05-03 23:34 | -10.98582 | -37.07203 | 38 ft | 4 kts | 261° |
| 2026-05-03 23:34 | -10.98580 | -37.07180 | 36 ft | 1 kts | 272° |
| 2026-05-03 23:38 | -10.98580 | -37.07193 | 36 ft | 5 kts | 274° |
| 2026-05-03 23:38 | -10.98547 | -37.07230 | 40 ft | 8 kts | 339° |
| 2026-05-03 23:39 | -10.98491 | -37.07232 | 37 ft | 7 kts | 2° |
| 2026-05-03 23:39 | -10.98444 | -37.07230 | 40 ft | 7 kts | 2° |
| 2026-05-03 23:39 | -10.98403 | -37.07253 | 40 ft | 8 kts | 302° |
| 2026-05-03 23:39 | -10.98394 | -37.07319 | 41 ft | 12 kts | 271° |
| 2026-05-03 23:40 | -10.98391 | -37.07423 | 42 ft | 16 kts | 273° |
| 2026-05-03 23:40 | -10.98387 | -37.07532 | 43 ft | 15 kts | 272° |
| 2026-05-03 23:40 | -10.98383 | -37.07636 | 43 ft | 14 kts | 272° |
| 2026-05-03 23:40 | -10.98380 | -37.07735 | 41 ft | 14 kts | 272° |
| 2026-05-03 23:41 | -10.98376 | -37.07831 | 40 ft | 13 kts | 272° |
| 2026-05-03 23:41 | -10.98373 | -37.07922 | 41 ft | 13 kts | 272° |
| 2026-05-03 23:41 | -10.98337 | -37.08001 | 42 ft | 12 kts | 291° |
| 2026-05-03 23:41 | -10.98369 | -37.08016 | 42 ft | 6 kts | 131° |
| 2026-05-03 23:42 | -10.98371 | -37.07974 | 42 ft | 0 kts | 90° |
| 2026-05-03 23:43 | -10.98376 | -37.07823 | 38 ft | 63 kts | 91° |
| 2026-05-03 23:43 | -10.98399 | -37.07075 | 41 ft | 145 kts | 92° |
| 2026-05-03 23:43 | -10.98460 | -37.05922 | 622 ft | 169 kts | 94° |
| 2026-05-03 23:43 | -10.98487 | -37.04764 | 1890 ft | 158 kts | 92° |
| 2026-05-03 23:44 | -10.98506 | -37.03625 | 2783 ft | 165 kts | 92° |
| 2026-05-03 23:44 | -10.98707 | -37.02376 | 3111 ft | 197 kts | 119° |
| 2026-05-03 23:44 | -10.99801 | -37.01428 | 3342 ft | 226 kts | 160° |
| 2026-05-03 23:44 | -11.01423 | -37.01345 | 3850 ft | 241 kts | 186° |
| 2026-05-03 23:45 | -11.03037 | -37.01893 | 4566 ft | 249 kts | 201° |
| 2026-05-03 23:45 | -11.04647 | -37.02666 | 5213 ft | 261 kts | 203° |
| 2026-05-03 23:45 | -11.06277 | -37.03472 | 6080 ft | 264 kts | 203° |
| 2026-05-03 23:45 | -11.07933 | -37.04288 | 6944 ft | 266 kts | 203° |
| 2026-05-03 23:46 | -11.09617 | -37.05109 | 7737 ft | 271 kts | 203° |
| 2026-05-03 23:46 | -11.11329 | -37.05935 | 8548 ft | 274 kts | 202° |
| 2026-05-03 23:46 | -11.13070 | -37.06768 | 9373 ft | 278 kts | 202° |
| 2026-05-03 23:46 | -11.14833 | -37.07607 | 10166 ft | 282 kts | 202° |
| 2026-05-03 23:47 | -11.16626 | -37.08457 | 10866 ft | 289 kts | 202° |
| 2026-05-03 23:47 | -11.18523 | -37.09350 | 11109 ft | 313 kts | 202° |
| 2026-05-03 23:47 | -11.20583 | -37.10317 | 11287 ft | 337 kts | 202° |
| 2026-05-03 23:47 | -11.22786 | -37.11351 | 11460 ft | 359 kts | 202° |
| 2026-05-03 23:48 | -11.25101 | -37.12438 | 11807 ft | 372 kts | 202° |
| 2026-05-03 23:48 | -11.27475 | -37.13550 | 12373 ft | 377 kts | 202° |
| 2026-05-03 23:48 | -11.29060 | -37.14294 | 12811 ft | 378 kts | 202° |
| 2026-05-03 23:48 | -11.31458 | -37.15420 | 13447 ft | 381 kts | 202° |
| 2026-05-03 23:49 | -11.34669 | -37.16928 | 14165 ft | 386 kts | 202° |
| 2026-05-03 23:49 | -11.37116 | -37.18078 | 14673 ft | 389 kts | 202° |
| 2026-05-03 23:49 | -11.38790 | -37.18865 | 15035 ft | 390 kts | 202° |
| 2026-05-03 23:49 | -11.41206 | -37.20002 | 15697 ft | 385 kts | 202° |
| 2026-05-03 23:50 | -11.43626 | -37.21142 | 15973 ft | 382 kts | 202° |
| 2026-05-03 23:50 | -11.46062 | -37.22288 | 16038 ft | 392 kts | 202° |
| 2026-05-03 23:50 | -11.48581 | -37.23470 | 16049 ft | 404 kts | 202° |
| 2026-05-03 23:50 | -11.51157 | -37.24681 | 16050 ft | 409 kts | 202° |
| 2026-05-03 23:51 | -11.53736 | -37.25896 | 16038 ft | 407 kts | 202° |
| 2026-05-03 23:51 | -11.56300 | -37.27105 | 16035 ft | 406 kts | 202° |
| 2026-05-03 23:51 | -11.58860 | -37.28312 | 16040 ft | 405 kts | 202° |
| 2026-05-03 23:51 | -11.61425 | -37.29521 | 16042 ft | 405 kts | 202° |
| 2026-05-03 23:52 | -11.63978 | -37.30724 | 16047 ft | 405 kts | 202° |
| 2026-05-03 23:52 | -11.66536 | -37.31929 | 16044 ft | 406 kts | 202° |
| 2026-05-03 23:52 | -11.69099 | -37.33137 | 16040 ft | 406 kts | 202° |
| 2026-05-03 23:52 | -11.71667 | -37.34348 | 16050 ft | 407 kts | 202° |
| 2026-05-03 23:53 | -11.74238 | -37.35560 | 16045 ft | 407 kts | 202° |
| 2026-05-03 23:53 | -11.76807 | -37.36771 | 16047 ft | 407 kts | 202° |
| 2026-05-03 23:53 | -11.79383 | -37.37987 | 16047 ft | 407 kts | 202° |
| 2026-05-03 23:53 | -11.81955 | -37.39200 | 16048 ft | 408 kts | 202° |
| 2026-05-03 23:54 | -11.84497 | -37.40400 | 16047 ft | 408 kts | 202° |
| 2026-05-03 23:54 | -11.87109 | -37.41634 | 16043 ft | 408 kts | 202° |
| 2026-05-03 23:54 | -11.89648 | -37.42832 | 16046 ft | 407 kts | 202° |
| 2026-05-03 23:54 | -11.92247 | -37.44079 | 16048 ft | 408 kts | 205° |
| 2026-05-03 23:55 | -11.94573 | -37.45687 | 16059 ft | 411 kts | 216° |
| 2026-05-03 23:55 | -11.96790 | -37.47589 | 16046 ft | 412 kts | 218° |
| 2026-05-03 23:55 | -11.98956 | -37.49509 | 16043 ft | 412 kts | 218° |
| 2026-05-03 23:55 | -12.01072 | -37.51386 | 16050 ft | 412 kts | 218° |
| 2026-05-03 23:56 | -12.03245 | -37.53296 | 16049 ft | 412 kts | 218° |
| 2026-05-03 23:56 | -12.05430 | -37.55195 | 16050 ft | 412 kts | 218° |
| 2026-05-03 23:56 | -12.07625 | -37.57088 | 16051 ft | 412 kts | 218° |
| 2026-05-03 23:56 | -12.09816 | -37.58968 | 16051 ft | 412 kts | 217° |
| 2026-05-03 23:57 | -12.12020 | -37.60854 | 16055 ft | 412 kts | 217° |
| 2026-05-03 23:57 | -12.14213 | -37.62729 | 16051 ft | 412 kts | 217° |
| 2026-05-03 23:57 | -12.16416 | -37.64612 | 16053 ft | 412 kts | 217° |
| 2026-05-03 23:57 | -12.18614 | -37.66491 | 16055 ft | 412 kts | 217° |
| 2026-05-03 23:58 | -12.20813 | -37.68372 | 16056 ft | 412 kts | 217° |
| 2026-05-03 23:58 | -12.23010 | -37.70252 | 16056 ft | 412 kts | 217° |
| 2026-05-03 23:58 | -12.25182 | -37.72112 | 16056 ft | 412 kts | 217° |
| 2026-05-03 23:58 | -12.27380 | -37.73994 | 16053 ft | 412 kts | 218° |
| 2026-05-03 23:59 | -12.29573 | -37.75872 | 16050 ft | 408 kts | 218° |
| 2026-05-03 23:59 | -12.31704 | -37.77700 | 16039 ft | 392 kts | 217° |
| 2026-05-03 23:59 | -12.33746 | -37.79453 | 16012 ft | 375 kts | 217° |
| 2026-05-03 23:59 | -12.35721 | -37.81148 | 15813 ft | 364 kts | 217° |
| 2026-05-04 00:00 | -12.37635 | -37.82788 | 15622 ft | 355 kts | 217° |
| 2026-05-04 00:00 | -12.39503 | -37.84390 | 15479 ft | 345 kts | 217° |
| 2026-05-04 00:00 | -12.41322 | -37.85949 | 15323 ft | 336 kts | 217° |
| 2026-05-04 00:00 | -12.43090 | -37.87465 | 15189 ft | 328 kts | 217° |
| 2026-05-04 00:01 | -12.44812 | -37.88942 | 15051 ft | 319 kts | 217° |
| 2026-05-04 00:01 | -12.46500 | -37.90389 | 14911 ft | 311 kts | 217° |
| 2026-05-04 00:01 | -12.48137 | -37.91794 | 14787 ft | 304 kts | 216° |
| 2026-05-04 00:01 | -12.49739 | -37.93169 | 14649 ft | 296 kts | 216° |
| 2026-05-04 00:02 | -12.51296 | -37.94505 | 14528 ft | 289 kts | 216° |
| 2026-05-04 00:02 | -12.52914 | -37.95677 | 14270 ft | 281 kts | 198° |
| 2026-05-04 00:02 | -12.54770 | -37.96013 | 14128 ft | 275 kts | 173° |
| 2026-05-04 00:02 | -12.56636 | -37.95590 | 14117 ft | 276 kts | 153° |
| 2026-05-04 00:03 | -12.58208 | -37.94521 | 14065 ft | 270 kts | 133° |
| 2026-05-04 00:03 | -12.59235 | -37.92955 | 14052 ft | 264 kts | 111° |
| 2026-05-04 00:03 | -12.59589 | -37.91118 | 14057 ft | 266 kts | 91° |
| 2026-05-04 00:03 | -12.59242 | -37.89236 | 14069 ft | 273 kts | 72° |
| 2026-05-04 00:04 | -12.58278 | -37.87550 | 14050 ft | 280 kts | 51° |
| 2026-05-04 00:04 | -12.56822 | -37.86205 | 14067 ft | 283 kts | 43° |
| 2026-05-04 00:04 | -12.55273 | -37.84946 | 14044 ft | 285 kts | 42° |
| 2026-05-04 00:04 | -12.53716 | -37.83688 | 14047 ft | 285 kts | 42° |
| 2026-05-04 00:05 | -12.52165 | -37.82419 | 14050 ft | 285 kts | 43° |
| 2026-05-04 00:05 | -12.50621 | -37.81147 | 14056 ft | 285 kts | 43° |
| 2026-05-04 00:05 | -12.49100 | -37.79888 | 14049 ft | 284 kts | 43° |
| 2026-05-04 00:05 | -12.47452 | -37.78762 | 14036 ft | 289 kts | 24° |
| 2026-05-04 00:06 | -12.45470 | -37.78409 | 14060 ft | 295 kts | 360° |
| 2026-05-04 00:06 | -12.43469 | -37.78909 | 14052 ft | 300 kts | 335° |
| 2026-05-04 00:06 | -12.41821 | -37.80208 | 14052 ft | 302 kts | 309° |
| 2026-05-04 00:06 | -12.40857 | -37.82100 | 14057 ft | 301 kts | 282° |
| 2026-05-04 00:07 | -12.40774 | -37.84208 | 14067 ft | 297 kts | 255° |
| 2026-05-04 00:07 | -12.41538 | -37.86135 | 14066 ft | 291 kts | 232° |
| 2026-05-04 00:07 | -12.42894 | -37.87640 | 14070 ft | 287 kts | 216° |
| 2026-05-04 00:07 | -12.44452 | -37.88927 | 14066 ft | 289 kts | 214° |
| 2026-05-04 00:08 | -12.46034 | -37.90196 | 14059 ft | 290 kts | 214° |
| 2026-05-04 00:08 | -12.47627 | -37.91488 | 14062 ft | 292 kts | 214° |
| 2026-05-04 00:08 | -12.49214 | -37.92793 | 14058 ft | 293 kts | 215° |
| 2026-05-04 00:08 | -12.50797 | -37.94103 | 14046 ft | 293 kts | 215° |
| 2026-05-04 00:09 | -12.52365 | -37.95403 | 14056 ft | 297 kts | 215° |
| 2026-05-04 00:09 | -12.54016 | -37.96767 | 13885 ft | 311 kts | 215° |
| 2026-05-04 00:09 | -12.55723 | -37.98180 | 13150 ft | 321 kts | 216° |
| 2026-05-04 00:09 | -12.57478 | -37.99634 | 12493 ft | 323 kts | 216° |
| 2026-05-04 00:10 | -12.59036 | -38.00931 | 12393 ft | 307 kts | 216° |
| 2026-05-04 00:10 | -12.60655 | -38.02281 | 12202 ft | 294 kts | 216° |
| 2026-05-04 00:10 | -12.62255 | -38.03609 | 11744 ft | 295 kts | 216° |
| 2026-05-04 00:10 | -12.63842 | -38.04926 | 11395 ft | 294 kts | 216° |
| 2026-05-04 00:11 | -12.65425 | -38.06240 | 11065 ft | 292 kts | 216° |
| 2026-05-04 00:11 | -12.66996 | -38.07543 | 10830 ft | 287 kts | 216° |
| 2026-05-04 00:11 | -12.68519 | -38.08810 | 10720 ft | 280 kts | 216° |
| 2026-05-04 00:11 | -12.70045 | -38.10076 | 10616 ft | 285 kts | 216° |
| 2026-05-04 00:12 | -12.71601 | -38.11367 | 10497 ft | 290 kts | 216° |
| 2026-05-04 00:12 | -12.73170 | -38.12670 | 10375 ft | 289 kts | 216° |
| 2026-05-04 00:12 | -12.74726 | -38.13964 | 10251 ft | 287 kts | 216° |
| 2026-05-04 00:12 | -12.76269 | -38.15256 | 10137 ft | 286 kts | 219° |
| 2026-05-04 00:13 | -12.77420 | -38.16910 | 10021 ft | 289 kts | 248° |
| 2026-05-04 00:13 | -12.77971 | -38.18904 | 9807 ft | 292 kts | 256° |
| 2026-05-04 00:13 | -12.78374 | -38.20924 | 9529 ft | 287 kts | 257° |
| 2026-05-04 00:13 | -12.78744 | -38.22897 | 9256 ft | 285 kts | 257° |
| 2026-05-04 00:14 | -12.79122 | -38.24885 | 8983 ft | 283 kts | 257° |
| 2026-05-04 00:14 | -12.79507 | -38.26859 | 8710 ft | 282 kts | 256° |
| 2026-05-04 00:14 | -12.79897 | -38.28826 | 8435 ft | 281 kts | 256° |
| 2026-05-04 00:14 | -12.80291 | -38.30784 | 8160 ft | 280 kts | 256° |
| 2026-05-04 00:15 | -12.80687 | -38.32740 | 7887 ft | 280 kts | 256° |
| 2026-05-04 00:15 | -12.81082 | -38.34684 | 7619 ft | 279 kts | 256° |
| 2026-05-04 00:15 | -12.81478 | -38.36629 | 7345 ft | 278 kts | 255° |
| 2026-05-04 00:15 | -12.81874 | -38.38574 | 7066 ft | 278 kts | 255° |
| 2026-05-04 00:16 | -12.82271 | -38.40544 | 6611 ft | 286 kts | 255° |
| 2026-05-04 00:16 | -12.82675 | -38.42560 | 6130 ft | 290 kts | 255° |
| 2026-05-04 00:16 | -12.83080 | -38.44586 | 5616 ft | 290 kts | 256° |
| 2026-05-04 00:16 | -12.83482 | -38.46600 | 5179 ft | 286 kts | 256° |
| 2026-05-04 00:17 | -12.83890 | -38.48565 | 4867 ft | 277 kts | 251° |
| 2026-05-04 00:17 | -12.84782 | -38.50258 | 4326 ft | 270 kts | 222° |
| 2026-05-04 00:17 | -12.86326 | -38.51269 | 3899 ft | 260 kts | 196° |
| 2026-05-04 00:17 | -12.88060 | -38.51592 | 3567 ft | 249 kts | 176° |
| 2026-05-04 00:18 | -12.89756 | -38.51374 | 3235 ft | 242 kts | 167° |
| 2026-05-04 00:18 | -12.91359 | -38.51039 | 2924 ft | 233 kts | 166° |
| 2026-05-04 00:18 | -12.92855 | -38.50565 | 2564 ft | 220 kts | 147° |
| 2026-05-04 00:18 | -12.93755 | -38.49381 | 2215 ft | 211 kts | 106° |
| 2026-05-04 00:19 | -12.93778 | -38.47909 | 1908 ft | 203 kts | 87° |
| 2026-05-04 00:19 | -12.93651 | -38.46515 | 1699 ft | 188 kts | 87° |
| 2026-05-04 00:19 | -12.93459 | -38.45279 | 1709 ft | 164 kts | 83° |
| 2026-05-04 00:19 | -12.93244 | -38.44176 | 1705 ft | 154 kts | 83° |
| 2026-05-04 00:20 | -12.93034 | -38.43126 | 1713 ft | 146 kts | 83° |
| 2026-05-04 00:20 | -12.92840 | -38.42153 | 1623 ft | 135 kts | 83° |
| 2026-05-04 00:20 | -12.92652 | -38.41212 | 1464 ft | 136 kts | 82° |
| 2026-05-04 00:20 | -12.92462 | -38.40273 | 1301 ft | 134 kts | 82° |
| 2026-05-04 00:21 | -12.92279 | -38.39346 | 1131 ft | 132 kts | 83° |
| 2026-05-04 00:21 | -12.92094 | -38.38432 | 975 ft | 131 kts | 82° |
| 2026-05-04 00:21 | -12.91910 | -38.37513 | 804 ft | 133 kts | 82° |
| 2026-05-04 00:21 | -12.91723 | -38.36577 | 637 ft | 135 kts | 82° |
| 2026-05-04 00:22 | -12.91536 | -38.35652 | 477 ft | 133 kts | 82° |
| 2026-05-04 00:22 | -12.91352 | -38.34728 | 313 ft | 133 kts | 82° |
| 2026-05-04 00:22 | -12.91161 | -38.33782 | 109 ft | 137 kts | 81° |
| 2026-05-04 00:22 | -12.90976 | -38.32870 | 30 ft | 120 kts | 79° |
| 2026-05-04 00:23 | -12.90842 | -38.32188 | 40 ft | 76 kts | 78° |
| 2026-05-04 00:23 | -12.90768 | -38.31805 | 43 ft | 40 kts | 89° |
| 2026-05-04 00:23 | -12.90858 | -38.31713 | 43 ft | 0 kts | 173° |
| 2026-05-04 00:24 | -12.90873 | -38.31713 | 43 ft | 6 kts | 186° |
| 2026-05-04 00:24 | -12.90918 | -38.31762 | 43 ft | 14 kts | 259° |
| 2026-05-04 00:25 | -12.90944 | -38.31888 | 39 ft | 20 kts | 258° |
| 2026-05-04 00:25 | -12.90973 | -38.32031 | 39 ft | 20 kts | 258° |
| 2026-05-04 00:25 | -12.91001 | -38.32171 | 37 ft | 20 kts | 258° |
| 2026-05-04 00:25 | -12.91027 | -38.32306 | 37 ft | 19 kts | 259° |
| 2026-05-04 00:26 | -12.91052 | -38.32435 | 36 ft | 15 kts | 258° |
| 2026-05-04 00:26 | -12.91075 | -38.32539 | 35 ft | 15 kts | 258° |
| 2026-05-04 00:26 | -12.91096 | -38.32645 | 33 ft | 15 kts | 258° |
| 2026-05-04 00:26 | -12.91116 | -38.32746 | 30 ft | 14 kts | 258° |
| 2026-05-04 00:27 | -12.91135 | -38.32843 | 30 ft | 14 kts | 258° |
| 2026-05-04 00:27 | -12.91157 | -38.32950 | 29 ft | 16 kts | 258° |
| 2026-05-04 00:27 | -12.91178 | -38.33060 | 27 ft | 15 kts | 258° |
| 2026-05-04 00:27 | -12.91245 | -38.33129 | 26 ft | 14 kts | 212° |
| 2026-05-04 00:28 | -12.91303 | -38.33202 | 28 ft | 13 kts | 207° |
| 2026-05-04 00:28 | -12.91345 | -38.33223 | 26 ft | 0 kts | 207° |